createdAt,value
2023-04-18T00:00:31.536Z,12.20
2023-04-18T00:02:59.262Z,12.08
2023-04-18T00:05:27.943Z,12.23
2023-04-18T00:07:54.675Z,12.23
2023-04-18T00:10:21.513Z,12.22
2023-04-18T00:12:49.034Z,12.20
2023-04-18T00:15:15.978Z,12.18
2023-04-18T00:17:42.982Z,12.19
2023-04-18T00:20:13.468Z,12.22
2023-04-18T00:22:42.751Z,12.26
2023-04-18T00:25:11.078Z,12.02
2023-04-18T00:27:41.672Z,12.20
2023-04-18T00:30:09.182Z,12.13
2023-04-18T00:32:37.815Z,12.12
2023-04-18T00:35:05.157Z,12.15
2023-04-18T00:37:31.826Z,12.11
2023-04-18T00:39:58.704Z,12.00
2023-04-18T00:42:29.434Z,11.99
2023-04-18T00:44:56.473Z,12.05
2023-04-18T00:47:23.311Z,12.00
2023-04-18T00:49:50.522Z,12.04
2023-04-18T00:52:18.545Z,12.01
2023-04-18T00:54:46.731Z,11.94
2023-04-18T00:57:13.733Z,11.92
2023-04-18T00:59:40.799Z,11.98
2023-04-18T01:02:07.950Z,11.98
2023-04-18T01:04:35.031Z,11.99
2023-04-18T01:07:02.322Z,12.00
2023-04-18T01:09:29.420Z,12.02
2023-04-18T01:11:56.274Z,11.99
2023-04-18T01:14:23.445Z,11.97
2023-04-18T01:16:50.149Z,11.96
2023-04-18T01:19:18.872Z,11.93
2023-04-18T01:21:45.686Z,11.99
2023-04-18T01:24:15.626Z,11.97
2023-04-18T01:26:44.841Z,11.89
2023-04-18T01:29:12.228Z,11.88
2023-04-18T01:31:40.033Z,11.85
2023-04-18T01:34:07.725Z,11.84
2023-04-18T01:36:35.532Z,11.78
2023-04-18T01:39:02.685Z,11.88
2023-04-18T01:41:32.572Z,11.98
2023-04-18T01:43:59.908Z,11.97
2023-04-18T01:46:27.021Z,11.96
2023-04-18T01:48:54.023Z,11.86
2023-04-18T01:51:21.617Z,11.83
2023-04-18T01:53:48.319Z,11.81
2023-04-18T01:56:14.953Z,11.89
2023-04-18T01:58:41.797Z,11.89
2023-04-18T02:01:08.797Z,11.81
2023-04-18T02:03:35.791Z,11.83
2023-04-18T02:06:05.884Z,11.71
2023-04-18T02:08:35.658Z,11.87
2023-04-18T02:11:05.058Z,11.80
2023-04-18T02:13:32.098Z,11.90
2023-04-18T02:15:58.728Z,11.89
2023-04-18T02:18:26.005Z,11.86
2023-04-18T02:20:52.733Z,11.77
2023-04-18T02:23:21.723Z,11.58
2023-04-18T02:25:48.381Z,11.68
2023-04-18T02:28:17.503Z,11.70
2023-04-18T02:30:44.259Z,11.69
2023-04-18T02:33:11.017Z,11.67
2023-04-18T02:35:38.772Z,11.61
2023-04-18T02:38:05.848Z,11.46
2023-04-18T02:40:32.455Z,11.49
2023-04-18T02:42:59.667Z,11.45
2023-04-18T02:45:26.432Z,11.44
2023-04-18T02:47:56.453Z,11.41
2023-04-18T02:50:24.826Z,11.38
2023-04-18T02:52:53.275Z,11.28
2023-04-18T02:55:22.378Z,11.24
2023-04-18T02:57:49.197Z,11.28
2023-04-18T03:00:52.639Z,11.13
2023-04-18T03:03:38.107Z,11.19
2023-04-18T03:06:22.394Z,11.11
2023-04-18T03:08:49.142Z,10.95
2023-04-18T03:11:16.663Z,10.85
2023-04-18T03:13:43.566Z,10.91
2023-04-18T03:16:11.566Z,10.88
2023-04-18T03:18:39.663Z,10.91
2023-04-18T03:21:07.152Z,10.93
2023-04-18T03:23:34.688Z,10.92
2023-04-18T03:26:08.189Z,10.96
2023-04-18T03:28:37.740Z,10.98
2023-04-18T03:31:05.023Z,10.97
2023-04-18T03:33:34.376Z,11.04
2023-04-18T03:36:08.734Z,10.99
2023-04-18T03:38:35.485Z,11.01
2023-04-18T03:41:02.960Z,10.92
2023-04-18T03:43:33.779Z,10.88
2023-04-18T03:46:01.105Z,10.87
2023-04-18T03:48:29.096Z,10.85
2023-04-18T03:50:59.876Z,10.93
2023-04-18T03:53:26.893Z,10.95
2023-04-18T03:55:56.139Z,10.84
2023-04-18T03:58:29.451Z,10.80
2023-04-18T04:00:56.109Z,10.83
2023-04-18T04:03:22.817Z,10.81
2023-04-18T04:05:49.761Z,10.86
2023-04-18T04:08:16.508Z,10.84
2023-04-18T04:10:45.116Z,10.79
2023-04-18T04:13:11.966Z,10.73
2023-04-18T04:15:40.620Z,10.76
2023-04-18T04:18:09.871Z,10.70
2023-04-18T04:20:39.778Z,10.67
2023-04-18T04:23:13.726Z,10.65
2023-04-18T04:25:42.644Z,10.61
2023-04-18T04:28:22.956Z,10.56
2023-04-18T04:30:55.722Z,10.54
2023-04-18T04:33:25.515Z,10.41
2023-04-18T04:35:55.653Z,10.39
2023-04-18T04:38:25.893Z,10.49
2023-04-18T04:40:54.036Z,10.48
2023-04-18T04:43:21.712Z,10.46
2023-04-18T04:45:51.594Z,10.33
2023-04-18T04:48:22.609Z,10.32
2023-04-18T04:51:00.599Z,10.29
2023-04-18T04:53:32.257Z,10.29
2023-04-18T04:56:01.710Z,10.30
2023-04-18T04:58:28.512Z,10.24
2023-04-18T05:01:13.988Z,10.24
2023-04-18T05:03:41.011Z,10.34
2023-04-18T05:06:07.868Z,10.30
2023-04-18T05:08:34.816Z,10.27
2023-04-18T05:11:01.983Z,10.33
2023-04-18T05:13:28.706Z,10.24
2023-04-18T05:15:55.665Z,10.20
2023-04-18T05:18:22.389Z,10.22
2023-04-18T05:20:49.280Z,10.27
2023-04-18T05:23:16.311Z,10.23
2023-04-18T05:25:42.977Z,10.25
2023-04-18T05:28:09.727Z,10.25
2023-04-18T05:30:36.423Z,10.19
2023-04-18T05:33:03.626Z,10.22
2023-04-18T05:35:31.291Z,10.26
2023-04-18T05:37:58.868Z,10.24
2023-04-18T05:40:27.317Z,10.45
2023-04-18T05:42:53.938Z,10.52
2023-04-18T05:45:20.614Z,10.54
2023-04-18T05:47:47.554Z,10.62
2023-04-18T05:50:14.377Z,10.72
2023-04-18T05:52:41.126Z,10.81
2023-04-18T05:55:08.168Z,10.85
2023-04-18T05:57:34.924Z,10.96
2023-04-18T06:00:03.387Z,11.07
2023-04-18T06:02:39.487Z,11.23
2023-04-18T06:05:07.798Z,11.30
2023-04-18T06:07:34.798Z,11.37
2023-04-18T06:10:01.713Z,11.29
2023-04-18T06:12:28.793Z,11.44
2023-04-18T06:14:55.547Z,11.43
2023-04-18T06:17:22.147Z,11.43
2023-04-18T06:19:48.818Z,11.48
2023-04-18T06:22:15.679Z,11.57
2023-04-18T06:24:42.417Z,11.61
2023-04-18T06:27:17.562Z,11.54
2023-04-18T06:29:50.988Z,11.69
2023-04-18T06:32:17.664Z,11.81
2023-04-18T06:34:44.815Z,11.88
2023-04-18T06:37:11.795Z,11.87
2023-04-18T06:39:38.528Z,11.96
2023-04-18T06:42:05.580Z,12.05
2023-04-18T06:44:32.653Z,11.99
2023-04-18T06:46:59.460Z,12.01
2023-04-18T06:49:26.694Z,12.04
2023-04-18T06:51:53.574Z,12.06
2023-04-18T06:54:20.510Z,12.07
2023-04-18T06:56:47.448Z,12.13
2023-04-18T06:59:14.406Z,12.20
2023-04-18T07:01:42.259Z,12.34
2023-04-18T07:04:09.192Z,12.17
2023-04-18T07:06:36.497Z,12.34
2023-04-18T07:09:03.459Z,12.38
2023-04-18T07:11:30.158Z,12.47
2023-04-18T07:13:56.939Z,12.55
2023-04-18T07:16:23.732Z,12.70
2023-04-18T07:18:51.693Z,12.73
2023-04-18T07:21:19.221Z,12.80
2023-04-18T07:23:46.445Z,12.89
2023-04-18T07:26:13.737Z,12.94
2023-04-18T07:28:40.554Z,12.95
2023-04-18T07:31:11.283Z,13.14
2023-04-18T07:33:38.781Z,13.25
2023-04-18T07:36:06.180Z,13.20
2023-04-18T07:38:35.332Z,13.37
2023-04-18T07:41:03.000Z,13.45
2023-04-18T07:43:30.082Z,13.46
2023-04-18T07:45:56.837Z,13.57
2023-04-18T07:48:25.143Z,13.56
2023-04-18T07:50:52.031Z,13.58
2023-04-18T07:53:19.028Z,13.57
2023-04-18T07:55:46.668Z,13.61
2023-04-18T07:58:14.053Z,13.71
2023-04-18T08:00:42.687Z,13.72
2023-04-18T08:03:13.113Z,13.84
2023-04-18T08:05:41.372Z,13.87
2023-04-18T08:08:09.847Z,13.92
2023-04-18T08:10:37.058Z,13.95
2023-04-18T08:13:04.416Z,14.10
2023-04-18T08:15:32.960Z,14.16
2023-04-18T08:18:01.115Z,14.24
2023-04-18T08:20:28.079Z,14.33
2023-04-18T08:23:06.243Z,14.54
2023-04-18T08:25:36.307Z,14.70
2023-04-18T08:28:04.181Z,14.67
2023-04-18T08:30:31.460Z,14.75
2023-04-18T08:33:00.172Z,14.76
2023-04-18T08:35:27.172Z,14.90
2023-04-18T08:37:53.874Z,15.02
2023-04-18T08:40:20.829Z,14.99
2023-04-18T08:42:48.059Z,15.15
2023-04-18T08:45:15.059Z,15.17
2023-04-18T08:47:42.568Z,15.22
2023-04-18T08:50:10.598Z,15.24
2023-04-18T08:52:45.021Z,15.42
2023-04-18T08:55:12.113Z,15.38
2023-04-18T08:57:39.831Z,15.45
2023-04-18T09:00:10.499Z,15.49
2023-04-18T09:02:42.795Z,15.54
2023-04-18T09:05:20.103Z,15.75
2023-04-18T09:07:48.864Z,15.92
2023-04-18T09:10:34.855Z,15.93
2023-04-18T09:13:06.254Z,16.03
2023-04-18T09:15:34.475Z,15.94
2023-04-18T09:18:03.055Z,15.92
2023-04-18T09:20:35.879Z,15.92
2023-04-18T09:23:11.141Z,15.87
2023-04-18T09:25:49.141Z,15.92
2023-04-18T09:28:29.128Z,16.09
2023-04-18T09:31:11.937Z,16.14
2023-04-18T09:33:43.288Z,16.27
2023-04-18T09:36:18.826Z,16.36
2023-04-18T09:38:46.142Z,16.42
2023-04-18T09:41:15.703Z,16.40
2023-04-18T09:43:43.248Z,16.44
2023-04-18T09:46:10.968Z,16.59
2023-04-18T09:48:38.191Z,16.77
2023-04-18T09:51:10.090Z,16.82
2023-04-18T09:53:41.634Z,16.86
2023-04-18T09:56:29.664Z,16.84
2023-04-18T09:59:01.640Z,16.80
2023-04-18T10:01:29.579Z,16.84
2023-04-18T10:03:57.781Z,16.99
2023-04-18T10:06:27.371Z,17.10
2023-04-18T10:08:55.231Z,17.17
2023-04-18T10:11:24.249Z,17.34
2023-04-18T10:13:56.005Z,17.42
2023-04-18T10:16:23.230Z,17.45
2023-04-18T10:18:51.169Z,17.58
2023-04-18T10:21:18.128Z,17.46
2023-04-18T10:23:48.741Z,17.32
2023-04-18T10:26:15.691Z,17.18
2023-04-18T10:28:57.733Z,17.12
2023-04-18T10:31:29.244Z,17.11
2023-04-18T10:36:30.338Z,16.95
2023-04-18T10:39:21.453Z,16.99
2023-04-18T10:41:50.598Z,17.21
2023-04-18T10:44:19.604Z,17.29
2023-04-18T10:46:52.465Z,17.58
2023-04-18T10:49:26.879Z,17.50
2023-04-18T10:51:55.824Z,17.79
2023-04-18T10:54:35.912Z,17.53
2023-04-18T10:57:04.624Z,17.52
2023-04-18T10:59:34.186Z,17.65
2023-04-18T11:02:19.655Z,17.58
2023-04-18T11:04:54.518Z,17.58
2023-04-18T11:07:48.878Z,17.62
2023-04-18T11:10:24.541Z,17.49
2023-04-18T11:12:52.598Z,17.30
2023-04-18T11:15:22.246Z,17.12
2023-04-18T11:17:59.996Z,17.21
2023-04-18T11:20:27.387Z,17.23
2023-04-18T11:23:00.111Z,17.27
2023-04-18T11:25:32.298Z,17.12
2023-04-18T11:28:01.010Z,17.08
2023-04-18T11:30:29.784Z,17.04
2023-04-18T11:32:56.708Z,17.00
2023-04-18T11:35:23.515Z,17.01
2023-04-18T11:37:51.205Z,16.99
2023-04-18T11:40:18.287Z,17.10
2023-04-18T11:42:45.369Z,17.19
2023-04-18T11:45:13.831Z,17.17
2023-04-18T11:47:42.741Z,17.20
2023-04-18T11:50:11.613Z,17.12
2023-04-18T11:52:40.925Z,17.17
2023-04-18T11:55:18.386Z,17.06
2023-04-18T11:57:56.035Z,17.08
2023-04-18T12:00:38.615Z,17.26
2023-04-18T12:03:13.404Z,17.30
2023-04-18T12:05:41.013Z,17.42
2023-04-18T12:08:11.934Z,17.44
2023-04-18T12:10:52.452Z,17.47
2023-04-18T12:13:26.099Z,17.42
2023-04-18T12:15:54.140Z,17.40
2023-04-18T12:18:21.474Z,17.40
2023-04-18T12:20:54.215Z,17.32
2023-04-18T12:23:37.075Z,17.32
2023-04-18T12:26:11.478Z,17.29
2023-04-18T12:28:39.430Z,17.33
2023-04-18T12:31:09.122Z,17.36
2023-04-18T12:33:38.820Z,17.37
2023-04-18T12:36:06.157Z,17.42
2023-04-18T12:38:32.798Z,17.64
2023-04-18T12:40:59.657Z,17.69
2023-04-18T12:43:26.620Z,17.64
2023-04-18T12:45:53.659Z,17.76
2023-04-18T12:48:21.068Z,17.66
2023-04-18T12:50:48.034Z,17.78
2023-04-18T12:53:15.468Z,17.72
2023-04-18T12:55:42.329Z,17.79
2023-04-18T12:58:09.049Z,17.83
2023-04-18T13:00:35.914Z,17.85
2023-04-18T13:03:03.042Z,17.82
2023-04-18T13:05:33.101Z,17.81
2023-04-18T13:10:31.514Z,17.93
2023-04-18T13:12:58.330Z,17.91
2023-04-18T13:15:26.038Z,17.97
2023-04-18T13:17:53.219Z,18.00
2023-04-18T13:20:20.041Z,18.07
2023-04-18T13:22:46.741Z,18.01
2023-04-18T13:25:13.869Z,18.00
2023-04-18T13:27:42.010Z,18.04
2023-04-18T13:30:11.221Z,18.15
2023-04-18T13:32:39.323Z,18.02
2023-04-18T13:35:10.709Z,18.12
2023-04-18T13:37:38.289Z,18.13
2023-04-18T13:40:06.994Z,18.12
2023-04-18T13:42:35.592Z,18.19
2023-04-18T13:45:02.832Z,18.10
2023-04-18T13:47:30.077Z,18.04
2023-04-18T13:49:58.081Z,18.00
2023-04-18T13:52:25.688Z,17.97
2023-04-18T13:54:52.453Z,17.98
2023-04-18T13:57:19.156Z,18.04
2023-04-18T13:59:45.814Z,18.00
2023-04-18T14:02:13.355Z,18.10
2023-04-18T14:04:40.132Z,18.04
2023-04-18T14:07:07.997Z,18.16
2023-04-18T14:09:34.895Z,18.21
2023-04-18T14:12:02.150Z,18.23
2023-04-18T14:14:29.209Z,18.25
2023-04-18T14:16:56.108Z,18.23
2023-04-18T14:19:22.947Z,18.20
2023-04-18T14:21:49.829Z,18.18
2023-04-18T14:24:16.645Z,18.22
2023-04-18T14:26:43.965Z,18.23
2023-04-18T14:29:11.101Z,18.19
2023-04-18T14:31:38.163Z,18.16
2023-04-18T14:34:05.634Z,18.16
2023-04-18T14:36:32.718Z,18.15
2023-04-18T14:38:59.484Z,18.13
2023-04-18T14:41:26.243Z,18.05
2023-04-18T14:43:53.128Z,18.04
2023-04-18T14:46:21.084Z,18.08
2023-04-18T14:48:47.897Z,18.09
2023-04-18T14:51:16.528Z,17.85
2023-04-18T14:53:44.194Z,17.77
2023-04-18T14:56:11.141Z,17.78
2023-04-18T14:58:37.829Z,17.64
2023-04-18T15:01:05.002Z,17.56
2023-04-18T15:03:32.061Z,17.46
2023-04-18T15:05:59.043Z,17.36
2023-04-18T15:08:26.037Z,17.33
2023-04-18T15:10:52.736Z,17.30
2023-04-18T15:13:19.423Z,17.26
2023-04-18T15:15:53.585Z,17.28
2023-04-18T15:18:20.638Z,17.23
2023-04-18T15:20:47.519Z,17.17
2023-04-18T15:23:14.947Z,17.15
2023-04-18T15:25:42.749Z,17.01
2023-04-18T15:28:09.520Z,17.06
2023-04-18T15:30:36.446Z,16.95
2023-04-18T15:33:03.312Z,16.73
2023-04-18T15:35:30.219Z,16.82
2023-04-18T15:37:57.518Z,16.86
2023-04-18T15:40:24.492Z,16.84
2023-04-18T15:42:53.461Z,16.83
2023-04-18T15:45:20.995Z,16.79
2023-04-18T15:47:48.071Z,16.76
2023-04-18T15:50:16.155Z,16.76
2023-04-18T15:52:44.104Z,16.74
2023-04-18T15:55:13.056Z,16.73
2023-04-18T15:57:41.550Z,16.52
2023-04-18T16:00:19.770Z,16.31
2023-04-18T16:02:47.163Z,16.14
2023-04-18T16:05:14.246Z,16.18
2023-04-18T16:07:42.102Z,16.17
2023-04-18T16:10:10.479Z,16.16
2023-04-18T16:12:38.119Z,16.05
2023-04-18T16:15:09.350Z,16.05
2023-04-18T16:17:37.145Z,15.93
2023-04-18T16:20:06.057Z,15.88
2023-04-18T16:22:32.959Z,15.82
2023-04-18T16:24:59.744Z,15.71
2023-04-18T16:27:26.571Z,15.71
2023-04-18T16:29:53.800Z,15.63
2023-04-18T16:32:20.512Z,15.58
2023-04-18T16:34:47.207Z,15.61
2023-04-18T16:37:14.046Z,15.65
2023-04-18T16:39:40.789Z,15.63
2023-04-18T16:42:07.592Z,15.52
2023-04-18T16:44:34.286Z,15.37
2023-04-18T16:47:01.338Z,15.14
2023-04-18T16:49:28.091Z,15.15
2023-04-18T16:51:54.793Z,15.06
2023-04-18T16:54:21.600Z,15.18
2023-04-18T16:56:48.678Z,15.20
2023-04-18T16:59:15.759Z,15.63
2023-04-18T17:01:42.584Z,15.84
2023-04-18T17:04:09.413Z,15.84
2023-04-18T17:06:36.439Z,15.77
2023-04-18T17:09:06.425Z,15.74
2023-04-18T17:11:38.869Z,15.20
2023-04-18T17:14:06.509Z,15.14
2023-04-18T17:16:33.341Z,15.06
2023-04-18T17:19:00.700Z,14.93
2023-04-18T17:21:27.558Z,15.06
2023-04-18T17:23:54.794Z,15.07
2023-04-18T17:26:24.296Z,15.16
2023-04-18T17:28:51.360Z,15.14
2023-04-18T17:31:18.009Z,15.14
2023-04-18T17:33:45.570Z,15.18
2023-04-18T17:36:12.308Z,15.18
2023-04-18T17:38:40.551Z,14.92
2023-04-18T17:41:07.897Z,14.99
2023-04-18T17:43:34.569Z,14.95
2023-04-18T17:46:03.810Z,14.94
2023-04-18T17:48:30.846Z,14.87
2023-04-18T17:50:57.551Z,14.86
2023-04-18T17:53:24.458Z,14.89
2023-04-18T17:55:52.361Z,14.89
2023-04-18T17:58:19.946Z,14.76
2023-04-18T18:00:46.665Z,14.74
2023-04-18T18:03:17.582Z,14.56
2023-04-18T18:05:48.952Z,14.52
2023-04-18T18:08:15.975Z,14.60
2023-04-18T18:10:42.984Z,14.62
2023-04-18T18:13:10.052Z,14.51
2023-04-18T18:15:36.685Z,14.52
2023-04-18T18:18:03.524Z,14.32
2023-04-18T18:20:30.823Z,14.36
2023-04-18T18:22:59.675Z,14.38
2023-04-18T18:25:27.060Z,14.45
2023-04-18T18:27:54.742Z,14.42
2023-04-18T18:30:21.536Z,14.48
2023-04-18T18:32:48.429Z,14.44
2023-04-18T18:35:15.208Z,14.44
2023-04-18T18:37:42.071Z,14.46
2023-04-18T18:40:09.437Z,14.44
2023-04-18T18:42:36.692Z,14.41
2023-04-18T18:45:04.059Z,14.34
2023-04-18T18:47:30.968Z,14.45
2023-04-18T18:49:57.779Z,14.45
2023-04-18T18:52:24.880Z,14.52
2023-04-18T18:54:51.770Z,14.53
2023-04-18T18:57:18.430Z,14.55
2023-04-18T18:59:45.054Z,14.50
2023-04-18T19:02:11.998Z,14.48
2023-04-18T19:04:39.374Z,14.50
2023-04-18T19:07:06.329Z,14.43
2023-04-18T19:09:33.506Z,14.44
2023-04-18T19:12:01.165Z,14.42
2023-04-18T19:14:28.122Z,14.39
2023-04-18T19:16:56.607Z,14.38
2023-04-18T19:19:23.691Z,14.27
2023-04-18T19:21:50.378Z,14.37
2023-04-18T19:24:17.925Z,14.37
2023-04-18T19:26:44.645Z,14.34
2023-04-18T19:29:14.320Z,14.33
2023-04-18T19:31:43.573Z,14.26
2023-04-18T19:34:10.895Z,14.37
2023-04-18T19:36:37.691Z,14.33
2023-04-18T19:39:04.381Z,14.28
2023-04-18T19:41:31.328Z,14.27
2023-04-18T19:43:58.351Z,14.28
2023-04-18T19:46:25.147Z,14.34
2023-04-18T19:48:51.851Z,14.34
2023-04-18T19:51:18.588Z,14.27
2023-04-18T19:53:45.751Z,14.14
2023-04-18T19:56:14.290Z,14.21
2023-04-18T19:58:46.728Z,14.18
2023-04-18T20:01:18.855Z,14.18
2023-04-18T20:03:47.057Z,14.17
2023-04-18T20:06:14.215Z,14.12
2023-04-18T20:08:45.897Z,14.12
2023-04-18T20:11:16.765Z,14.01
2023-04-18T20:13:43.404Z,13.89
2023-04-18T20:16:12.164Z,13.98
2023-04-18T20:18:41.475Z,13.94
2023-04-18T20:21:09.382Z,13.95
2023-04-18T20:23:36.963Z,14.01
2023-04-18T20:26:04.496Z,13.92
2023-04-18T20:28:31.970Z,13.89
2023-04-18T20:30:59.244Z,13.64
2023-04-18T20:33:26.194Z,13.65
2023-04-18T20:35:54.710Z,13.63
2023-04-18T20:38:25.962Z,13.61
2023-04-18T20:40:54.265Z,13.59
2023-04-18T20:43:22.716Z,13.67
2023-04-18T20:45:53.839Z,13.53
2023-04-18T20:48:21.166Z,13.44
2023-04-18T20:50:51.441Z,13.35
2023-04-18T20:53:20.759Z,13.32
2023-04-18T20:55:48.260Z,13.30
2023-04-18T20:58:14.944Z,13.14
2023-04-18T21:00:41.781Z,13.26
2023-04-18T21:03:08.747Z,13.28
2023-04-18T21:05:35.696Z,13.30
2023-04-18T21:08:02.436Z,13.32
2023-04-18T21:10:29.056Z,13.27
2023-04-18T21:12:57.330Z,13.25
2023-04-18T21:15:24.263Z,13.14
2023-04-18T21:17:51.346Z,13.10
2023-04-18T21:20:18.557Z,13.06
2023-04-18T21:22:45.308Z,13.05
2023-04-18T21:25:12.082Z,13.03
2023-04-18T21:27:38.863Z,13.04
2023-04-18T21:30:06.689Z,13.02
2023-04-18T21:32:33.597Z,12.95
2023-04-18T21:35:01.503Z,12.90
2023-04-18T21:37:28.628Z,12.79
2023-04-18T21:39:55.577Z,12.84
2023-04-18T21:42:22.338Z,12.86
2023-04-18T21:44:49.050Z,12.76
2023-04-18T21:47:15.959Z,12.84
2023-04-18T21:49:42.937Z,12.67
2023-04-18T21:52:09.766Z,12.69
2023-04-18T21:54:36.426Z,12.66
2023-04-18T21:57:03.352Z,12.54
2023-04-18T21:59:30.617Z,12.51
2023-04-18T22:01:57.369Z,12.48
2023-04-18T22:04:26.206Z,12.48
2023-04-18T22:06:54.271Z,12.44
2023-04-18T22:09:21.432Z,12.36
2023-04-18T22:11:48.428Z,12.36
2023-04-18T22:14:15.256Z,12.23
2023-04-18T22:16:42.319Z,12.29
2023-04-18T22:19:09.107Z,12.26
2023-04-18T22:21:36.048Z,12.21
2023-04-18T22:24:03.048Z,12.06
2023-04-18T22:26:29.755Z,12.13
2023-04-18T22:28:56.403Z,12.17
2023-04-18T22:31:23.188Z,12.08
2023-04-18T22:33:50.045Z,12.07
2023-04-18T22:36:16.810Z,11.99
2023-04-18T22:38:43.523Z,11.93
2023-04-18T22:41:10.357Z,11.87
2023-04-18T22:43:37.021Z,11.78
2023-04-18T22:46:03.753Z,11.82
2023-04-18T22:48:31.141Z,11.74
2023-04-18T22:50:57.885Z,11.74
2023-04-18T22:53:24.553Z,11.77
2023-04-18T22:55:51.254Z,11.75
2023-04-18T22:58:17.939Z,11.64
2023-04-18T23:00:44.815Z,11.70
2023-04-18T23:03:11.596Z,11.73
2023-04-18T23:05:38.561Z,11.71
2023-04-18T23:08:06.970Z,11.60
2023-04-18T23:10:34.157Z,11.61
2023-04-18T23:13:00.957Z,11.63
2023-04-18T23:15:27.659Z,11.64
2023-04-18T23:17:54.500Z,11.59
2023-04-18T23:20:21.776Z,11.59
2023-04-18T23:22:51.344Z,11.60
2023-04-18T23:25:19.355Z,11.58
2023-04-18T23:27:46.271Z,11.58
2023-04-18T23:30:13.129Z,11.48
2023-04-18T23:32:39.756Z,11.53
2023-04-18T23:35:06.960Z,11.51
2023-04-18T23:37:33.615Z,11.56
2023-04-18T23:40:00.577Z,11.54
2023-04-18T23:42:27.465Z,11.56
2023-04-18T23:44:54.650Z,11.53
2023-04-18T23:47:21.833Z,11.51
2023-04-18T23:49:48.636Z,11.53
2023-04-18T23:52:15.430Z,11.49
2023-04-18T23:54:42.236Z,11.41
2023-04-18T23:57:08.942Z,11.47
2023-04-18T23:59:35.654Z,11.50
